Time;durP1;ratioP1;P1;durP2;ratioP2;P2;SDS_P1;SDS_P2;PMS_P1;PMS_P2;Temp;Humidity;BMP_temperature;BMP_pressure;BME280_temperature;BME280_humidity;BME280_pressure;Samples;Min_cycle;Max_cycle;Signal;HPM_P1;HPM_P2
2023/01/06 00:01:26;;;;;;;39.88;14.55;;;11.10;99.90;;;;;;5032929;28;20168;-79
2023/01/06 00:03:54;;;;;;;35.03;13.98;;;11.10;99.90;;;;;;5060070;28;20239;-78
2023/01/06 00:06:26;;;;;;;39.47;14.20;;;11.10;99.90;;;;;;5035403;28;20176;-79
2023/01/06 00:08:56;;;;;;;35.95;13.05;;;11.10;99.90;;;;;;5032132;28;20194;-78
2023/01/06 00:11:23;;;;;;;34.80;13.68;;;11.10;99.90;;;;;;5065117;28;20218;-78
2023/01/06 00:13:49;;;;;;;34.17;12.35;;;11.10;99.90;;;;;;5046863;28;20652;-79
2023/01/06 00:16:18;;;;;;;37.45;12.05;;;11.10;99.90;;;;;;5030065;28;20176;-79
2023/01/06 00:18:44;;;;;;;42.95;13.23;;;11.20;99.90;;;;;;5031952;28;20192;-78
2023/01/06 00:21:12;;;;;;;40.88;11.60;;;11.20;99.90;;;;;;5031612;28;20654;-78
2023/01/06 00:23:38;;;;;;;39.83;11.70;;;11.20;99.90;;;;;;5031913;28;20249;-79
2023/01/06 00:26:05;;;;;;;40.70;11.07;;;11.20;99.90;;;;;;5047018;28;20180;-82
2023/01/06 00:28:31;;;;;;;35.50;10.45;;;11.20;99.90;;;;;;5047361;28;20267;-80
2023/01/06 00:30:57;;;;;;;41.47;10.35;;;11.20;99.90;;;;;;5029452;28;20192;-78
2023/01/06 00:33:23;;;;;;;31.90;10.05;;;11.20;99.90;;;;;;5030192;28;20567;-78
2023/01/06 00:35:49;;;;;;;31.95;10.10;;;11.20;99.90;;;;;;5032825;28;20242;-78
2023/01/06 00:38:15;;;;;;;33.92;9.57;;;11.20;99.90;;;;;;5029656;28;20179;-78
2023/01/06 00:40:41;;;;;;;33.05;9.25;;;11.20;99.90;;;;;;5031164;28;20172;-77
2023/01/06 00:43:07;;;;;;;31.50;8.50;;;11.20;99.90;;;;;;5031431;28;20235;-78
2023/01/06 00:45:33;;;;;;;33.42;8.90;;;11.20;99.90;;;;;;5031454;28;20557;-78
2023/01/06 00:47:59;;;;;;;35.67;9.48;;;11.20;99.90;;;;;;5051646;28;20187;-77
2023/01/06 00:50:24;;;;;;;31.95;9.05;;;11.20;99.90;;;;;;5046857;28;20176;-79
2023/01/06 00:52:50;;;;;;;38.95;9.38;;;11.30;99.90;;;;;;5046542;28;20199;-78
2023/01/06 00:55:16;;;;;;;37.03;9.50;;;11.30;99.90;;;;;;5047926;28;20184;-77
2023/01/06 00:57:42;;;;;;;30.98;9.82;;;11.30;99.90;;;;;;5029787;28;20668;-78
2023/01/06 01:00:09;;;;;;;32.30;9.52;;;11.30;99.90;;;;;;5047257;28;20366;-77
2023/01/06 01:02:35;;;;;;;33.72;10.48;;;11.30;99.90;;;;;;5031220;28;20226;-78
2023/01/06 01:05:01;;;;;;;34.47;11.15;;;11.30;99.90;;;;;;5052503;28;20183;-78
2023/01/06 01:07:26;;;;;;;26.27;10.18;;;11.30;99.90;;;;;;5062233;28;20188;-78
2023/01/06 01:09:52;;;;;;;36.15;9.77;;;11.30;99.90;;;;;;5028903;28;20232;-78
2023/01/06 01:12:19;;;;;;;33.00;10.27;;;11.30;99.90;;;;;;5052832;28;20701;-78
2023/01/06 01:14:47;;;;;;;26.90;9.60;;;11.30;99.90;;;;;;5046430;28;20196;-78
2023/01/06 01:17:26;;;;;;;32.88;9.95;;;11.30;99.90;;;;;;5040994;28;20189;-78
2023/01/06 01:19:54;;;;;;;35.95;9.43;;;11.30;99.90;;;;;;5046805;28;20176;-78
2023/01/06 01:22:21;;;;;;;28.85;8.82;;;11.30;99.90;;;;;;5030564;28;20218;-79
2023/01/06 01:24:47;;;;;;;30.50;8.20;;;11.30;99.90;;;;;;5029406;28;20210;-78
2023/01/06 01:27:14;;;;;;;28.73;7.43;;;11.30;99.90;;;;;;5028450;28;20699;-78
2023/01/06 01:29:39;;;;;;;23.63;7.22;;;11.30;99.90;;;;;;5029892;28;20690;-79
2023/01/06 01:32:05;;;;;;;17.85;6.53;;;11.30;99.90;;;;;;5047431;28;20176;-77
2023/01/06 01:34:31;;;;;;;20.05;6.13;;;11.30;99.90;;;;;;5046689;28;20465;-78
2023/01/06 01:36:57;;;;;;;18.05;6.38;;;11.30;99.90;;;;;;5047334;28;20211;-79
2023/01/06 01:39:25;;;;;;;23.00;5.72;;;11.30;99.90;;;;;;5028439;28;20238;-79
2023/01/06 01:41:52;;;;;;;14.52;4.88;;;11.30;99.90;;;;;;5063774;28;20176;-78
2023/01/06 01:44:46;;;;;;;12.73;4.93;;;11.30;99.90;;;;;;5046328;28;20622;-78
2023/01/06 01:47:20;;;;;;;14.77;4.57;;;11.30;99.90;;;;;;5047363;28;20187;-78
2023/01/06 01:49:49;;;;;;;12.75;4.30;;;11.30;99.90;;;;;;5030452;28;20726;-78
2023/01/06 01:52:17;;;;;;;16.90;4.25;;;11.30;99.90;;;;;;5034614;28;20640;-78
2023/01/06 01:54:44;;;;;;;15.95;4.45;;;11.30;99.90;;;;;;5064426;28;20191;-78
2023/01/06 01:57:22;;;;;;;18.48;4.63;;;11.30;99.90;;;;;;5018084;28;20184;-78
2023/01/06 01:59:48;;;;;;;16.70;4.20;;;11.30;99.90;;;;;;5031807;28;20190;-78
2023/01/06 02:02:16;;;;;;;16.80;4.90;;;11.30;99.90;;;;;;5032796;28;20211;-78
2023/01/06 02:04:51;;;;;;;16.90;5.47;;;11.30;99.90;;;;;;5026676;28;20635;-84
2023/01/06 02:07:18;;;;;;;20.58;5.32;;;11.30;99.90;;;;;;5013991;28;20525;-83
2023/01/06 02:09:57;;;;;;;16.50;4.88;;;11.30;99.90;;;;;;5048115;28;20223;-79
2023/01/06 02:12:23;;;;;;;15.68;4.63;;;11.30;99.90;;;;;;5035646;28;20269;-78
2023/01/06 02:14:49;;;;;;;15.80;5.75;;;11.30;99.90;;;;;;5015857;28;20287;-78
2023/01/06 02:18:09;;;;;;;22.65;6.25;;;11.30;99.90;;;;;;5031825;28;20639;-79
2023/01/06 02:21:04;;;;;;;13.15;5.80;;;11.30;99.90;;;;;;4988476;28;20197;-78
2023/01/06 02:23:54;;;;;;;17.33;6.38;;;11.30;99.90;;;;;;4946749;28;20233;-79
2023/01/06 02:26:32;;;;;;;17.83;6.30;;;11.30;99.90;;;;;;5066777;28;20608;-78
2023/01/06 02:29:07;;;;;;;14.52;5.68;;;11.30;99.90;;;;;;5027057;28;20183;-79
2023/01/06 02:31:57;;;;;;;12.27;6.20;;;11.30;99.90;;;;;;5033629;28;20183;-78
2023/01/06 02:34:32;;;;;;;20.85;6.18;;;11.20;99.90;;;;;;5064968;28;20207;-79
2023/01/06 02:37:52;;;;;;;14.75;5.85;;;11.20;99.90;;;;;;5049785;28;20279;-78
2023/01/06 02:40:24;;;;;;;20.75;6.47;;;11.30;99.90;;;;;;4976244;28;20204;-78
2023/01/06 02:43:06;;;;;;;14.88;5.93;;;11.30;99.90;;;;;;4996878;28;20242;-78
2023/01/06 02:45:41;;;;;;;16.75;5.85;;;11.30;99.90;;;;;;5049373;28;20172;-79
2023/01/06 02:48:27;;;;;;;15.05;5.78;;;11.20;99.90;;;;;;5062591;28;20207;-81
2023/01/06 02:51:27;;;;;;;18.90;6.30;;;11.30;99.90;;;;;;5057930;28;20171;-78
2023/01/06 02:54:08;;;;;;;14.30;5.00;;;11.20;99.90;;;;;;5006573;28;20668;-78
2023/01/06 02:56:41;;;;;;;15.27;5.50;;;11.30;99.90;;;;;;5032174;28;20678;-78
2023/01/06 02:59:13;;;;;;;16.02;5.75;;;11.30;99.90;;;;;;5032105;28;20232;-79
2023/01/06 03:01:45;;;;;;;14.63;5.60;;;11.30;99.90;;;;;;5051942;28;20188;-80
2023/01/06 03:04:17;;;;;;;14.82;5.90;;;11.20;99.90;;;;;;5044028;28;20288;-78
2023/01/06 03:06:48;;;;;;;15.30;5.63;;;11.20;99.90;;;;;;5064106;28;20214;-78
2023/01/06 03:09:19;;;;;;;17.30;5.70;;;11.20;99.90;;;;;;5064937;28;20215;-78
2023/01/06 03:11:49;;;;;;;12.88;5.40;;;11.20;99.90;;;;;;5047183;28;20193;-79
2023/01/06 03:14:27;;;;;;;12.77;5.32;;;11.20;99.90;;;;;;5017124;28;20184;-79
2023/01/06 03:16:54;;;;;;;16.20;5.32;;;11.20;99.90;;;;;;5013251;28;20173;-78
2023/01/06 03:19:20;;;;;;;12.23;5.28;;;11.20;99.90;;;;;;5043871;28;20192;-78
2023/01/06 03:21:49;;;;;;;13.95;4.90;;;11.20;99.90;;;;;;5032408;28;20188;-78
2023/01/06 03:24:18;;;;;;;17.30;5.28;;;11.20;99.90;;;;;;5037529;28;20544;-78
2023/01/06 03:26:47;;;;;;;15.90;5.35;;;11.20;99.90;;;;;;5049010;28;20230;-78
2023/01/06 03:29:15;;;;;;;11.20;4.90;;;11.20;99.90;;;;;;5031130;28;20207;-78
2023/01/06 03:32:05;;;;;;;11.80;5.30;;;11.20;99.90;;;;;;5030711;28;20271;-79
2023/01/06 03:34:56;;;;;;;9.10;4.82;;;11.20;99.90;;;;;;5046453;28;20187;-78
2023/01/06 03:37:25;;;;;;;12.55;4.88;;;11.20;99.90;;;;;;5040994;28;20653;-78
2023/01/06 03:40:14;;;;;;;13.52;4.78;;;11.20;99.90;;;;;;5027855;28;20657;-79
2023/01/06 03:45:55;;;;;;;14.55;5.15;;;11.20;99.90;;;;;;5041728;28;20194;-78
2023/01/06 03:48:54;;;;;;;12.80;5.30;;;11.20;99.90;;;;;;5046620;28;20266;-78
2023/01/06 03:51:55;;;;;;;14.32;5.43;;;11.10;99.90;;;;;;5032234;28;20176;-78
2023/01/06 03:54:39;;;;;;;13.90;5.28;;;11.10;99.90;;;;;;5046773;28;20274;-79
2023/01/06 03:57:24;;;;;;;14.18;5.60;;;11.10;99.90;;;;;;5031931;28;20655;-78
2023/01/06 03:59:57;;;;;;;14.05;5.50;;;11.10;99.90;;;;;;5025603;28;20611;-79
2023/01/06 04:02:24;;;;;;;10.90;5.05;;;11.10;99.90;;;;;;5014801;28;20275;-78
2023/01/06 04:05:16;;;;;;;11.68;5.82;;;11.10;99.90;;;;;;5061541;28;20309;-78
2023/01/06 04:07:43;;;;;;;11.48;6.43;;;11.10;99.90;;;;;;5014789;28;20176;-78
2023/01/06 04:10:11;;;;;;;9.55;6.10;;;11.10;99.90;;;;;;5031168;28;20239;-78
2023/01/06 04:12:37;;;;;;;13.48;7.00;;;11.10;99.90;;;;;;5031621;28;20184;-78
2023/01/06 04:15:05;;;;;;;13.43;7.20;;;11.10;99.90;;;;;;5012327;28;20204;-78
2023/01/06 04:17:32;;;;;;;13.60;7.85;;;11.10;99.90;;;;;;5012998;28;20322;-79
2023/01/06 04:19:58;;;;;;;18.80;8.75;;;11.10;99.90;;;;;;5047460;28;20191;-78
2023/01/06 04:22:24;;;;;;;13.88;8.15;;;11.10;99.90;;;;;;5031277;28;20215;-78
2023/01/06 04:24:50;;;;;;;13.73;8.18;;;11.10;99.90;;;;;;5046131;28;20184;-78
2023/01/06 04:27:16;;;;;;;13.52;8.15;;;11.10;99.90;;;;;;5031656;28;20171;-78
2023/01/06 04:29:42;;;;;;;17.70;7.70;;;11.10;99.90;;;;;;5046780;28;20184;-80
2023/01/06 04:32:08;;;;;;;12.00;7.10;;;11.10;99.90;;;;;;5029714;28;20536;-79
2023/01/06 04:34:34;;;;;;;9.48;6.47;;;11.10;99.90;;;;;;5014223;28;20631;-78
2023/01/06 04:37:01;;;;;;;14.27;7.47;;;11.10;99.90;;;;;;5028254;28;20280;-78
2023/01/06 04:39:27;;;;;;;10.23;6.80;;;11.10;99.90;;;;;;5060414;28;20368;-78
2023/01/06 04:41:52;;;;;;;9.57;6.10;;;11.10;99.90;;;;;;5046873;28;20620;-78
2023/01/06 04:44:18;;;;;;;10.65;6.03;;;11.10;99.90;;;;;;5033120;28;20195;-79
2023/01/06 04:46:44;;;;;;;10.57;6.43;;;11.10;99.90;;;;;;5028127;28;20189;-78
2023/01/06 04:49:09;;;;;;;12.23;6.13;;;11.10;99.90;;;;;;5054766;28;20284;-78
2023/01/06 04:51:35;;;;;;;9.00;5.50;;;11.10;99.90;;;;;;5062476;28;20212;-80
2023/01/06 04:54:01;;;;;;;8.52;5.63;;;11.10;99.90;;;;;;5029635;28;20184;-78
2023/01/06 04:56:27;;;;;;;8.80;5.50;;;11.10;99.90;;;;;;5048198;28;20570;-78
2023/01/06 04:58:54;;;;;;;9.73;5.47;;;11.10;99.90;;;;;;5013470;28;20715;-78
2023/01/06 05:01:21;;;;;;;13.73;5.10;;;11.10;99.90;;;;;;5064345;28;20294;-79
2023/01/06 05:03:47;;;;;;;6.63;5.05;;;11.10;99.90;;;;;;5030915;28;20476;-78
2023/01/06 05:06:13;;;;;;;9.25;4.47;;;11.10;99.90;;;;;;5079941;28;20647;-78
2023/01/06 05:08:40;;;;;;;7.60;4.70;;;11.10;99.90;;;;;;5056738;28;20238;-78
2023/01/06 05:11:17;;;;;;;9.35;4.22;;;11.10;99.90;;;;;;5032406;28;20239;-78
2023/01/06 05:13:43;;;;;;;7.50;4.38;;;11.10;99.90;;;;;;5030929;28;20183;-78
2023/01/06 05:16:23;;;;;;;7.28;3.95;;;11.10;99.90;;;;;;5030924;28;20175;-79
2023/01/06 05:18:49;;;;;;;9.82;4.18;;;11.10;99.90;;;;;;5044143;28;20186;-78
2023/01/06 05:21:15;;;;;;;8.43;3.75;;;11.10;99.90;;;;;;5039742;28;20272;-79
2023/01/06 05:23:41;;;;;;;8.60;4.32;;;11.10;99.90;;;;;;5030265;28;20571;-79
2023/01/06 05:26:09;;;;;;;7.90;3.53;;;11.10;99.90;;;;;;5031009;28;20184;-79
2023/01/06 05:28:35;;;;;;;6.75;3.65;;;11.10;99.90;;;;;;5056158;28;20200;-79
2023/01/06 05:31:02;;;;;;;7.80;3.88;;;11.10;99.90;;;;;;5030991;28;20188;-79
2023/01/06 05:33:29;;;;;;;8.43;4.00;;;11.10;99.90;;;;;;5017388;28;20187;-79
2023/01/06 05:36:08;;;;;;;7.57;3.97;;;11.10;99.90;;;;;;5034979;28;20175;-79
2023/01/06 05:38:34;;;;;;;7.18;4.22;;;11.10;99.90;;;;;;5034828;28;20187;-78
2023/01/06 05:41:00;;;;;;;11.30;4.78;;;11.20;99.90;;;;;;5040426;28;20287;-79
2023/01/06 05:43:26;;;;;;;8.88;5.00;;;11.20;99.90;;;;;;5017271;28;20300;-78
2023/01/06 05:45:53;;;;;;;11.27;5.45;;;11.20;99.90;;;;;;5032028;28;20185;-79
2023/01/06 05:48:19;;;;;;;7.40;5.35;;;11.20;99.90;;;;;;5021306;28;20271;-78
2023/01/06 05:50:45;;;;;;;10.63;6.28;;;11.20;99.90;;;;;;5035771;28;20176;-80
2023/01/06 05:53:11;;;;;;;10.82;6.57;;;11.10;99.90;;;;;;5049500;28;20198;-78
2023/01/06 05:55:37;;;;;;;12.98;7.28;;;11.10;99.90;;;;;;5050199;28;20391;-78
2023/01/06 05:58:02;;;;;;;11.20;7.88;;;11.10;99.90;;;;;;5049999;28;20222;-79
2023/01/06 06:00:28;;;;;;;8.98;7.38;;;11.10;99.90;;;;;;5064742;28;20367;-79
2023/01/06 06:02:54;;;;;;;14.13;8.48;;;11.10;99.90;;;;;;5015394;28;20219;-79
2023/01/06 06:05:20;;;;;;;14.93;8.80;;;11.10;99.90;;;;;;5075179;28;20187;-79
2023/01/06 06:07:55;;;;;;;12.45;8.65;;;11.00;99.90;;;;;;5050023;28;20310;-79
2023/01/06 06:10:22;;;;;;;12.85;10.02;;;11.00;99.90;;;;;;5033643;28;20568;-83
2023/01/06 06:12:49;;;;;;;14.30;9.48;;;10.90;99.90;;;;;;5061771;28;20196;-79
2023/01/06 06:15:15;;;;;;;12.77;8.80;;;11.00;99.90;;;;;;5066563;28;20203;-79
2023/01/06 06:17:41;;;;;;;15.73;10.30;;;10.90;99.90;;;;;;5049412;28;20640;-79
2023/01/06 06:20:07;;;;;;;13.63;9.07;;;10.90;99.90;;;;;;5035368;28;20234;-80
2023/01/06 06:22:33;;;;;;;11.75;8.98;;;10.90;99.90;;;;;;4998247;28;20216;-79
2023/01/06 06:24:58;;;;;;;11.73;8.88;;;10.90;99.90;;;;;;5027478;28;20210;-79
2023/01/06 06:27:24;;;;;;;14.50;9.63;;;10.90;99.90;;;;;;5032492;28;20192;-79
2023/01/06 06:29:50;;;;;;;12.65;8.93;;;10.90;99.90;;;;;;5015327;28;20186;-79
2023/01/06 06:32:15;;;;;;;13.82;8.88;;;10.90;99.90;;;;;;5049405;28;20197;-78
2023/01/06 06:34:41;;;;;;;13.40;8.32;;;10.90;99.90;;;;;;5030477;28;20176;-79
2023/01/06 06:37:07;;;;;;;9.40;8.20;;;10.90;99.90;;;;;;5031316;28;20204;-79
2023/01/06 06:39:32;;;;;;;12.48;8.38;;;10.80;99.90;;;;;;5032317;28;20658;-78
2023/01/06 06:41:58;;;;;;;10.55;8.40;;;10.80;99.90;;;;;;5027137;28;20322;-80
2023/01/06 06:44:24;;;;;;;10.63;8.43;;;10.80;99.90;;;;;;5046203;28;20279;-82
2023/01/06 06:46:50;;;;;;;12.93;7.50;;;10.80;99.90;;;;;;5035937;28;20200;-78
2023/01/06 06:49:15;;;;;;;9.27;7.65;;;10.80;99.90;;;;;;5027458;28;20546;-79
2023/01/06 06:51:41;;;;;;;11.02;7.78;;;10.90;99.90;;;;;;5033624;28;20210;-78
2023/01/06 06:54:07;;;;;;;12.10;7.43;;;10.80;99.90;;;;;;5032234;28;20180;-79
2023/01/06 06:56:33;;;;;;;12.57;8.13;;;10.80;99.90;;;;;;5033286;28;20190;-78
2023/01/06 06:58:59;;;;;;;10.95;7.70;;;10.80;99.90;;;;;;5030616;28;20192;-79
2023/01/06 07:01:24;;;;;;;8.27;7.18;;;10.80;99.90;;;;;;5032812;28;20547;-79
2023/01/06 07:03:50;;;;;;;23.92;14.88;;;10.80;99.90;;;;;;5031493;28;20285;-78
2023/01/06 07:06:21;;;;;;;9.35;7.00;;;10.80;99.90;;;;;;5042566;28;20258;-78
2023/01/06 07:08:48;;;;;;;7.70;6.07;;;10.80;99.90;;;;;;5032086;28;20192;-77
2023/01/06 07:11:13;;;;;;;11.65;7.63;;;10.80;99.90;;;;;;5033593;28;20223;-78
2023/01/06 07:13:39;;;;;;;7.80;6.18;;;10.80;99.90;;;;;;5048775;28;20199;-80
2023/01/06 07:16:06;;;;;;;8.05;6.13;;;10.80;99.90;;;;;;5025021;28;20327;-78
2023/01/06 07:18:31;;;;;;;9.70;5.95;;;10.80;99.90;;;;;;5048435;28;20192;-79
2023/01/06 07:20:57;;;;;;;9.93;6.05;;;10.80;99.90;;;;;;5049639;28;20609;-78
2023/01/06 07:23:23;;;;;;;6.20;5.60;;;10.80;99.90;;;;;;5032625;28;20211;-77
2023/01/06 07:25:53;;;;;;;7.03;4.90;;;10.80;99.90;;;;;;5064748;28;20191;-78
2023/01/06 07:28:20;;;;;;;7.30;4.63;;;10.80;99.90;;;;;;5025984;28;20214;-77
2023/01/06 07:30:45;;;;;;;8.02;4.68;;;10.80;99.90;;;;;;5016018;28;20219;-78
2023/01/06 07:33:11;;;;;;;6.38;4.00;;;10.80;99.90;;;;;;5031561;28;20589;-78
2023/01/06 07:35:37;;;;;;;4.63;3.60;;;10.80;99.90;;;;;;5032854;28;20683;-78
2023/01/06 07:38:06;;;;;;;5.75;3.80;;;10.80;99.90;;;;;;5014374;28;20702;-78
2023/01/06 07:40:33;;;;;;;5.32;2.72;;;10.90;99.90;;;;;;5032485;28;20186;-77
2023/01/06 07:43:04;;;;;;;5.70;2.85;;;10.80;99.90;;;;;;5064884;28;20238;-77
2023/01/06 07:45:29;;;;;;;6.50;2.53;;;10.80;99.90;;;;;;5049030;28;20253;-77
2023/01/06 07:47:55;;;;;;;10.93;2.70;;;10.90;99.90;;;;;;5044658;28;20180;-78
2023/01/06 07:50:21;;;;;;;4.47;2.60;;;10.90;99.90;;;;;;5032182;28;20588;-77
2023/01/06 07:52:47;;;;;;;4.75;2.40;;;10.90;99.90;;;;;;5031321;28;20351;-77
2023/01/06 07:55:13;;;;;;;4.57;2.35;;;10.90;99.90;;;;;;5065643;28;20203;-77
2023/01/06 07:57:39;;;;;;;8.23;2.80;;;10.90;99.90;;;;;;5026801;28;20558;-77
2023/01/06 08:00:05;;;;;;;8.02;2.65;;;10.80;99.90;;;;;;5048494;28;20183;-79
2023/01/06 08:02:38;;;;;;;5.82;2.20;;;10.80;99.90;;;;;;5031679;28;20290;-78
2023/01/06 08:05:04;;;;;;;4.88;2.20;;;10.80;99.90;;;;;;5026948;28;20183;-77
2023/01/06 08:07:29;;;;;;;7.72;2.22;;;10.70;99.90;;;;;;5070309;28;20199;-78
2023/01/06 08:09:55;;;;;;;8.65;1.77;;;10.70;99.90;;;;;;5032659;28;20232;-78
2023/01/06 08:12:21;;;;;;;7.40;1.88;;;10.60;99.90;;;;;;5065103;28;20279;-78
2023/01/06 08:14:47;;;;;;;4.20;1.52;;;10.60;99.90;;;;;;5046805;28;20528;-78
2023/01/06 08:17:15;;;;;;;6.05;1.60;;;10.60;99.90;;;;;;5033323;28;20188;-84
2023/01/06 08:19:41;;;;;;;9.60;1.83;;;10.50;99.90;;;;;;5029906;28;20640;-77
2023/01/06 08:22:07;;;;;;;11.90;2.00;;;10.50;99.90;;;;;;5031786;28;20187;-77
2023/01/06 08:24:33;;;;;;;6.50;1.55;;;10.40;99.90;;;;;;5029896;28;20192;-78
2023/01/06 08:26:59;;;;;;;6.45;1.60;;;10.40;99.90;;;;;;5012214;28;20180;-80
2023/01/06 08:29:24;;;;;;;4.20;1.35;;;10.30;99.90;;;;;;5052623;28;20200;-79
2023/01/06 08:31:51;;;;;;;7.60;1.30;;;10.30;99.90;;;;;;5040757;28;20184;-78
2023/01/06 08:34:18;;;;;;;6.80;1.40;;;10.30;99.90;;;;;;5045694;28;20183;-78
2023/01/06 08:36:44;;;;;;;7.68;1.55;;;10.30;99.90;;;;;;5064871;28;20176;-78
2023/01/06 08:39:11;;;;;;;5.93;1.80;;;10.30;99.90;;;;;;5031659;28;20284;-77
2023/01/06 08:41:38;;;;;;;10.02;1.80;;;10.30;99.90;;;;;;5047414;28;20191;-78
2023/01/06 08:44:04;;;;;;;5.05;1.30;;;10.30;99.90;;;;;;5034519;28;20212;-77
2023/01/06 08:46:31;;;;;;;4.47;1.48;;;10.30;99.90;;;;;;5028003;28;20197;-77
2023/01/06 08:48:56;;;;;;;4.85;1.30;;;10.40;99.90;;;;;;5024109;28;20192;-77
2023/01/06 08:51:25;;;;;;;5.40;1.20;;;10.40;99.90;;;;;;5022982;28;20191;-78
2023/01/06 08:53:52;;;;;;;4.70;1.15;;;10.30;99.90;;;;;;5038261;28;20200;-77
2023/01/06 08:56:26;;;;;;;8.82;1.40;;;10.40;99.90;;;;;;5024267;28;20215;-79
2023/01/06 08:58:58;;;;;;;8.27;1.30;;;10.50;99.90;;;;;;5031581;28;20191;-79
2023/01/06 09:01:29;;;;;;;12.02;1.80;;;10.60;99.90;;;;;;5036867;28;20246;-78
2023/01/06 09:03:57;;;;;;;11.30;1.73;;;10.90;99.90;;;;;;5035837;28;20211;-78
2023/01/06 09:06:23;;;;;;;7.22;1.40;;;11.40;99.90;;;;;;5039399;28;20255;-80
2023/01/06 09:08:48;;;;;;;7.72;1.58;;;12.00;99.90;;;;;;5050366;28;20471;-78
2023/01/06 09:11:16;;;;;;;7.93;1.50;;;12.60;99.90;;;;;;5034670;28;20216;-78
2023/01/06 09:13:42;;;;;;;6.82;1.65;;;13.20;99.90;;;;;;5033965;28;20202;-78
2023/01/06 09:16:09;;;;;;;6.63;1.42;;;13.60;99.90;;;;;;5050678;28;20237;-78
2023/01/06 09:18:36;;;;;;;8.10;1.45;;;14.10;99.90;;;;;;5045559;28;20204;-84
2023/01/06 09:21:02;;;;;;;8.88;1.70;;;14.40;99.90;;;;;;5048425;28;20680;-79
2023/01/06 09:23:29;;;;;;;12.80;1.92;;;14.70;99.90;;;;;;5030427;28;20227;-77
2023/01/06 09:25:55;;;;;;;8.00;1.67;;;15.00;99.90;;;;;;5033341;28;20191;-77
2023/01/06 09:28:21;;;;;;;8.55;1.67;;;15.20;99.90;;;;;;5050582;28;20195;-78
2023/01/06 09:30:47;;;;;;;6.88;1.60;;;15.40;99.90;;;;;;5033345;28;20192;-80
2023/01/06 09:33:14;;;;;;;8.15;1.75;;;15.50;99.90;;;;;;5050248;28;20219;-78
2023/01/06 09:35:42;;;;;;;9.52;1.50;;;15.70;99.90;;;;;;5034926;28;20729;-78
2023/01/06 09:38:07;;;;;;;8.50;1.70;;;15.80;99.90;;;;;;5034895;28;20183;-80
2023/01/06 09:41:11;;;;;;;12.30;1.50;;;15.90;99.90;;;;;;5034939;28;20177;-79
2023/01/06 09:43:57;;;;;;;8.48;1.98;;;16.00;99.90;;;;;;5017353;28;20551;-80
2023/01/06 09:46:28;;;;;;;6.82;1.50;;;16.10;99.90;;;;;;5036164;28;20172;-77
2023/01/06 09:49:24;;;;;;;12.30;1.67;;;16.20;99.90;;;;;;5066931;28;20184;-76
2023/01/06 09:52:05;;;;;;;10.95;2.05;;;16.20;99.90;;;;;;5031690;28;20177;-82
2023/01/06 09:54:42;;;;;;;10.85;1.88;;;16.30;99.90;;;;;;5043992;28;20249;-79
2023/01/06 09:57:31;;;;;;;10.27;1.83;;;16.30;99.90;;;;;;5034434;28;20175;-78
2023/01/06 10:00:50;;;;;;;13.32;2.00;;;16.30;99.90;;;;;;5040669;28;20184;-84
2023/01/06 10:03:18;;;;;;;10.77;1.83;;;16.20;99.90;;;;;;5016117;28;20223;-77
2023/01/06 10:06:10;;;;;;;13.70;1.75;;;15.90;99.90;;;;;;5078001;28;20179;-77
2023/01/06 10:09:14;;;;;;;6.82;1.35;;;15.60;99.90;;;;;;5043182;28;20184;-76
2023/01/06 10:11:49;;;;;;;9.70;1.63;;;15.10;99.90;;;;;;5025725;28;20220;-77
2023/01/06 10:14:50;;;;;;;10.00;1.77;;;14.70;99.90;;;;;;5033545;28;20253;-76
2023/01/06 10:17:40;;;;;;;14.00;2.00;;;14.20;99.90;;;;;;4997240;28;20185;-80
2023/01/06 10:20:33;;;;;;;13.75;1.95;;;13.90;99.90;;;;;;5031303;28;20194;-76
2023/01/06 10:23:13;;;;;;;10.18;2.08;;;13.50;99.90;;;;;;5039885;28;20585;-75
2023/01/06 10:25:45;;;;;;;7.90;1.73;;;13.30;99.90;;;;;;5050663;28;20638;-75
2023/01/06 10:28:38;;;;;;;12.40;2.13;;;13.20;99.90;;;;;;5031603;28;20286;-81
2023/01/06 10:31:20;;;;;;;14.15;2.10;;;13.10;99.90;;;;;;5033334;28;20184;-75
2023/01/06 10:33:51;;;;;;;12.10;1.80;;;13.30;99.90;;;;;;5044123;28;20207;-76
2023/01/06 10:36:26;;;;;;;15.18;2.08;;;13.40;99.90;;;;;;5021928;28;20183;-75
2023/01/06 10:38:53;;;;;;;13.32;1.70;;;13.40;99.90;;;;;;5043933;28;20180;-76
2023/01/06 10:41:31;;;;;;;9.13;1.70;;;13.60;99.90;;;;;;5048860;28;20218;-75
2023/01/06 10:43:57;;;;;;;13.15;1.90;;;13.80;99.90;;;;;;5029860;28;20756;-76
2023/01/06 10:46:32;;;;;;;11.18;2.13;;;14.10;99.90;;;;;;5033889;28;20188;-75
2023/01/06 10:48:57;;;;;;;9.25;1.92;;;14.30;99.90;;;;;;5033806;28;20172;-76
2023/01/06 10:51:23;;;;;;;14.63;1.80;;;14.30;99.90;;;;;;5015572;28;20406;-76
2023/01/06 10:53:49;;;;;;;9.43;1.73;;;14.50;99.90;;;;;;5042901;28;20736;-76
2023/01/06 10:56:16;;;;;;;12.57;2.35;;;14.60;99.90;;;;;;5048460;28;20273;-76
2023/01/06 10:58:45;;;;;;;11.65;2.17;;;14.80;99.90;;;;;;5034059;28;20195;-75
2023/01/06 11:01:14;;;;;;;11.63;1.88;;;15.00;99.90;;;;;;5045743;28;20196;-75
2023/01/06 11:03:44;;;;;;;8.40;1.70;;;15.10;99.90;;;;;;5032124;28;20222;-76
2023/01/06 11:06:28;;;;;;;9.77;1.70;;;15.10;99.90;;;;;;5053871;28;20223;-74
2023/01/06 11:08:54;;;;;;;10.10;1.52;;;15.10;99.90;;;;;;5048476;28;20537;-75
2023/01/06 11:11:20;;;;;;;11.45;2.10;;;15.10;99.90;;;;;;5022874;28;20271;-74
2023/01/06 11:13:49;;;;;;;10.82;1.85;;;15.10;99.90;;;;;;5032126;28;20192;-75
2023/01/06 11:16:27;;;;;;;11.13;2.05;;;15.10;99.90;;;;;;5028272;28;20185;-74
2023/01/06 11:18:59;;;;;;;16.77;2.03;;;15.30;99.90;;;;;;5037298;28;20196;-74
2023/01/06 11:21:40;;;;;;;11.50;2.00;;;15.30;99.90;;;;;;5024727;28;20246;-75
2023/01/06 11:24:25;;;;;;;12.32;1.83;;;15.40;99.90;;;;;;5064672;28;20242;-74
2023/01/06 11:26:54;;;;;;;10.98;2.03;;;15.50;99.90;;;;;;5032727;28;20196;-75
2023/01/06 11:29:32;;;;;;;12.95;2.17;;;15.60;99.90;;;;;;5026210;28;20196;-75
2023/01/06 11:32:23;;;;;;;13.85;2.10;;;15.60;99.90;;;;;;5023439;28;20183;-75
2023/01/06 11:35:01;;;;;;;17.40;2.20;;;15.40;99.90;;;;;;5043171;28;20238;-75
2023/01/06 11:37:33;;;;;;;12.25;1.95;;;15.30;99.90;;;;;;5045279;28;20187;-77
2023/01/06 11:40:12;;;;;;;11.98;2.30;;;15.20;99.90;;;;;;5031345;28;20229;-75
2023/01/06 11:42:38;;;;;;;12.55;2.08;;;15.10;99.90;;;;;;5047327;28;20242;-77
2023/01/06 11:45:04;;;;;;;12.80;1.90;;;15.20;99.90;;;;;;5033483;28;20184;-75
2023/01/06 11:47:30;;;;;;;10.88;2.20;;;15.20;99.90;;;;;;5047097;28;20551;-78
2023/01/06 11:49:59;;;;;;;7.57;1.73;;;15.20;99.90;;;;;;5014337;28;20250;-74
2023/01/06 11:52:30;;;;;;;10.35;1.55;;;15.00;99.90;;;;;;5040168;28;20223;-79
2023/01/06 11:55:07;;;;;;;14.00;2.17;;;15.00;99.90;;;;;;5032866;28;20184;-75
2023/01/06 11:57:39;;;;;;;8.80;1.75;;;14.80;99.90;;;;;;5047150;28;20183;-76
2023/01/06 12:00:17;;;;;;;13.70;2.30;;;14.70;99.90;;;;;;5030181;28;20632;-82
2023/01/06 12:03:11;;;;;;;5.72;2.05;;;14.60;99.90;;;;;;5025041;28;20243;-79
2023/01/06 12:05:37;;;;;;;10.10;2.40;;;14.30;99.90;;;;;;5042887;28;20310;-77
2023/01/06 12:08:39;;;;;;;12.38;2.13;;;14.20;99.90;;;;;;5064816;28;20910;-76
2023/01/06 12:11:20;;;;;;;9.50;2.08;;;13.90;99.90;;;;;;5041225;28;20364;-76
2023/01/06 12:13:46;;;;;;;8.05;1.75;;;13.70;99.90;;;;;;5030587;28;20659;-77
2023/01/06 12:16:22;;;;;;;11.98;1.95;;;13.50;99.90;;;;;;5032659;28;20211;-75
2023/01/06 12:18:49;;;;;;;12.35;1.88;;;13.30;99.90;;;;;;5029078;28;20231;-76
2023/01/06 12:21:30;;;;;;;9.00;1.98;;;13.30;99.90;;;;;;5030488;28;20249;-76
2023/01/06 12:24:03;;;;;;;13.77;1.80;;;13.30;99.90;;;;;;5020690;28;20208;-76
2023/01/06 12:26:30;;;;;;;19.38;2.50;;;13.20;99.90;;;;;;5040284;28;20512;-76
2023/01/06 12:28:58;;;;;;;11.32;2.20;;;13.30;99.90;;;;;;5045929;28;20559;-76
2023/01/06 12:31:41;;;;;;;13.98;2.53;;;13.30;99.90;;;;;;5031420;28;20188;-76
2023/01/06 12:34:18;;;;;;;10.35;1.80;;;13.30;99.90;;;;;;5030797;28;20188;-75
2023/01/06 12:37:29;;;;;;;11.77;2.10;;;13.40;99.90;;;;;;5015897;28;20282;-76
2023/01/06 12:40:03;;;;;;;14.80;1.92;;;13.40;99.90;;;;;;5021399;28;20204;-77
2023/01/06 12:42:40;;;;;;;13.77;2.00;;;13.40;99.90;;;;;;5031004;28;20203;-80
2023/01/06 12:45:31;;;;;;;12.25;1.83;;;13.40;99.90;;;;;;5015779;28;20187;-74
2023/01/06 12:47:58;;;;;;;10.43;1.83;;;13.40;99.90;;;;;;5031043;28;20188;-75
2023/01/06 12:50:40;;;;;;;12.60;1.95;;;13.50;99.90;;;;;;5027158;28;20192;-76
2023/01/06 12:53:15;;;;;;;11.88;2.10;;;13.50;99.90;;;;;;5020331;28;20191;-75
2023/01/06 12:56:01;;;;;;;12.23;2.35;;;13.50;99.90;;;;;;5032298;28;20202;-75
2023/01/06 12:58:58;;;;;;;14.75;2.20;;;13.50;99.90;;;;;;5046746;28;20203;-76
2023/01/06 13:01:39;;;;;;;10.30;2.10;;;13.60;99.90;;;;;;5042309;28;20667;-77
2023/01/06 13:04:08;;;;;;;14.10;2.10;;;13.60;99.90;;;;;;5031377;28;20215;-74